Time,TemperatureF,DewpointF,PressureIn,WindDirection,WindDirectionDegrees,WindSpeedMPH,WindSpeedGustMPH,Humidity,HourlyPrecipIn,Conditions,Clouds,dailyrainin,SolarRadiationWatts/m^2,SoftwareType,DateUTC
2013-04-24 00:01:00,38.4,33.7,30.20,NNE,20,6.0,16.1,83,0.00,RA,,0.00,0.0,WeatherDisplay:10.37,2013-04-24 05:01:00,
2013-04-24 00:06:00,38.3,33.6,30.21,NNW,345,3.7,13.8,83,0.00,RA,,0.00,0.0,WeatherDisplay:10.37,2013-04-24 05:06:00,
2013-04-24 00:11:00,38.1,33.7,30.21,NNW,331,13.2,18.4,84,0.00,OVC,,0.00,0.0,WeatherDisplay:10.37,2013-04-24 05:11:00,
2013-04-24 00:16:00,38.0,33.6,30.21,NNW,337,7.8,16.1,84,0.00,OVC,,0.00,0.0,WeatherDisplay:10.37,2013-04-24 05:16:00,
2013-04-24 00:21:00,38.0,33.9,30.22,North,356,7.6,12.7,85,0.00,OVC,,0.00,0.0,WeatherDisplay:10.37,2013-04-24 05:21:00,
2013-04-24 00:26:00,37.9,33.8,30.22,NNE,14,10.5,16.1,85,0.00,OVC,,0.00,0.0,WeatherDisplay:10.37,2013-04-24 05:26:00,
2013-04-24 00:31:00,37.8,33.7,30.22,NNE,14,8.7,17.3,85,0.00,OVC,,0.00,0.0,WeatherDisplay:10.37,2013-04-24 05:31:00,
2013-04-24 00:36:00,37.7,33.6,30.22,North,351,9.2,16.1,85,0.00,OVC,,0.00,0.0,WeatherDisplay:10.37,2013-04-24 05:36:00,
2013-04-24 00:41:00,37.7,33.6,30.22,NNW,348,8.7,17.3,85,0.00,OVC,,0.00,0.0,WeatherDisplay:10.37,2013-04-24 05:41:00,
2013-04-24 00:46:00,37.7,33.3,30.23,NNW,337,13.1,17.3,84,0.00,OVC,,0.00,0.0,WeatherDisplay:10.37,2013-04-24 05:46:00,
2013-04-24 00:51:00,37.7,33.3,30.22,North,6,6.1,11.5,84,0.00,OVC,,0.00,0.0,WeatherDisplay:10.37,2013-04-24 05:51:00,
2013-04-24 00:56:00,37.8,33.1,30.22,North,356,13.7,25.3,83,0.00,OVC,,0.00,0.0,WeatherDisplay:10.37,2013-04-24 05:56:00,
2013-04-24 01:01:00,37.9,32.9,30.22,North,356,8.2,11.5,82,0.00,OVC,,0.00,0.0,WeatherDisplay:10.37,2013-04-24 06:01:00,
2013-04-24 01:06:00,37.9,32.9,30.23,NNW,345,5.7,16.1,82,0.00,OVC,,0.00,0.0,WeatherDisplay:10.37,2013-04-24 06:06:00,
2013-04-24 01:11:00,38.0,33.0,30.24,NW,305,10.7,15.0,82,0.00,OVC,,0.00,0.0,WeatherDisplay:10.37,2013-04-24 06:11:00,
2013-04-24 01:16:00,38.0,32.7,30.24,North,6,5.9,11.5,81,0.00,OVC,,0.00,0.0,WeatherDisplay:10.37,2013-04-24 06:16:00,
2013-04-24 01:21:00,38.1,32.8,30.23,North,356,6.3,11.5,81,0.00,OVC,,0.00,0.0,WeatherDisplay:10.37,2013-04-24 06:21:00,
2013-04-24 01:26:00,38.0,32.7,30.22,North,6,7.0,12.7,81,0.00,OVC,,0.00,0.0,WeatherDisplay:10.37,2013-04-24 06:26:00,
2013-04-24 01:31:00,38.0,33.0,30.20,NNE,24,7.1,8.1,82,0.00,OVC,,0.00,0.0,WeatherDisplay:10.37,2013-04-24 06:31:00,
2013-04-24 01:36:00,37.9,32.6,30.22,North,349,6.9,9.2,81,0.00,OVC,,0.00,0.0,WeatherDisplay:10.37,2013-04-24 06:36:00,
2013-04-24 01:41:00,37.9,32.9,30.24,North,351,6.6,8.1,82,0.00,OVC,,0.00,0.0,WeatherDisplay:10.37,2013-04-24 06:41:00,
2013-04-24 01:46:00,38.0,33.0,30.25,North,356,7.7,8.1,82,0.00,OVC,,0.00,0.0,WeatherDisplay:10.37,2013-04-24 06:46:00,
2013-04-24 01:51:00,38.1,33.1,30.24,NNW,344,5.3,12.0,82,0.00,OVC,,0.00,0.0,WeatherDisplay:10.37,2013-04-24 06:51:00,
2013-04-24 01:56:00,38.1,32.5,30.23,NNW,339,7.1,13.8,80,0.00,OVC,,0.00,0.0,WeatherDisplay:10.37,2013-04-24 06:56:00,
2013-04-24 02:01:00,38.0,32.4,30.22,North,1,9.4,16.1,80,0.00,OVC,,0.00,0.0,WeatherDisplay:10.37,2013-04-24 07:01:00,
2013-04-24 02:06:00,37.9,32.3,30.23,NNW,334,6.4,10.4,80,0.00,OVC,,0.00,0.0,WeatherDisplay:10.37,2013-04-24 07:06:00,
2013-04-24 02:11:00,38.0,32.4,30.25,North,351,7.2,13.8,80,0.00,OVC,,0.00,0.0,WeatherDisplay:10.37,2013-04-24 07:11:00,
2013-04-24 02:16:00,38.0,32.1,30.25,NNW,338,11.8,19.6,79,0.00,OVC,,0.00,0.0,WeatherDisplay:10.37,2013-04-24 07:16:00,
2013-04-24 02:21:00,37.9,32.0,30.26,NNE,33,12.0,12.0,79,0.00,OVC,,0.00,0.0,WeatherDisplay:10.37,2013-04-24 07:21:00,
2013-04-24 02:26:00,37.8,31.6,30.26,NW,316,11.0,18.4,78,0.00,OVC,,0.00,0.0,WeatherDisplay:10.37,2013-04-24 07:26:00,
2013-04-24 02:31:00,37.6,31.0,30.26,North,356,14.9,19.6,77,0.00,OVC,,0.00,0.0,WeatherDisplay:10.37,2013-04-24 07:31:00,
2013-04-24 02:36:00,37.4,30.5,30.25,NNW,332,7.1,11.5,76,0.00,OVC,,0.00,0.0,WeatherDisplay:10.37,2013-04-24 07:36:00,
2013-04-24 02:41:00,37.2,30.3,30.25,North,1,11.8,18.0,76,0.00,OVC,,0.00,0.0,WeatherDisplay:10.37,2013-04-24 07:41:00,
2013-04-24 02:46:00,37.1,30.2,30.25,NNE,18,10.1,13.8,76,0.00,OVC,,0.00,0.0,WeatherDisplay:10.37,2013-04-24 07:46:00,
2013-04-24 02:51:00,37.1,30.2,30.25,NNE,31,11.8,21.9,76,0.00,OVC,,0.00,0.0,WeatherDisplay:10.37,2013-04-24 07:51:00,
2013-04-24 02:56:00,37.2,30.0,30.26,North,1,6.7,17.3,75,0.00,OVC,,0.00,0.0,WeatherDisplay:10.37,2013-04-24 07:56:00,
2013-04-24 03:01:00,37.1,30.2,30.26,North,356,9.6,15.0,76,0.00,OVC,,0.00,0.0,WeatherDisplay:10.37,2013-04-24 08:01:00,
2013-04-24 03:06:00,37.0,30.1,30.26,NNW,344,9.0,17.3,76,0.00,OVC,,0.00,0.0,WeatherDisplay:10.37,2013-04-24 08:06:00,
2013-04-24 03:11:00,36.9,29.7,30.26,NNW,347,9.2,15.0,75,0.00,OVC,,0.00,0.0,WeatherDisplay:10.37,2013-04-24 08:11:00,
2013-04-24 03:16:00,36.7,29.5,30.25,North,356,9.8,19.0,75,0.00,OVC,,0.00,0.0,WeatherDisplay:10.37,2013-04-24 08:16:00,
2013-04-24 03:21:00,36.5,29.7,30.25,NE,46,7.5,12.7,76,0.00,OVC,,0.00,0.0,WeatherDisplay:10.37,2013-04-24 08:21:00,
2013-04-24 03:26:00,36.2,29.7,30.26,NNW,345,7.1,12.7,77,0.00,OVC,,0.00,0.0,WeatherDisplay:10.37,2013-04-24 08:26:00,
2013-04-24 03:31:00,36.1,29.6,30.26,NNE,20,4.6,8.1,77,0.00,BKN,,0.00,0.0,WeatherDisplay:10.37,2013-04-24 08:31:00,
2013-04-24 03:36:00,35.9,29.7,30.25,North,6,7.7,9.2,78,0.00,BKN,,0.00,0.0,WeatherDisplay:10.37,2013-04-24 08:36:00,
2013-04-24 03:41:00,35.9,29.4,30.25,North,6,7.4,15.0,77,0.00,BKN,,0.00,0.0,WeatherDisplay:10.37,2013-04-24 08:41:00,
2013-04-24 03:46:00,35.7,29.5,30.25,North,356,7.9,16.1,78,0.00,SCT,,0.00,0.0,WeatherDisplay:10.37,2013-04-24 08:46:00,
2013-04-24 03:51:00,35.6,29.7,30.24,North,10,4.2,11.5,79,0.00,SCT,,0.00,0.0,WeatherDisplay:10.37,2013-04-24 08:51:00,
2013-04-24 03:56:00,35.5,29.3,30.24,NNW,348,4.9,9.2,78,0.00,SCT,,0.00,0.0,WeatherDisplay:10.37,2013-04-24 08:56:00,
2013-04-24 04:01:00,35.3,29.4,30.25,North,1,5.2,10.4,79,0.00,SCT,,0.00,0.0,WeatherDisplay:10.37,2013-04-24 09:01:00,
2013-04-24 04:06:00,35.2,29.3,30.24,North,1,6.5,8.1,79,0.00,SCT,,0.00,0.0,WeatherDisplay:10.37,2013-04-24 09:06:00,
2013-04-24 04:11:00,35.0,29.5,30.24,North,6,3.4,6.9,80,0.00,SCT,,0.00,0.0,WeatherDisplay:10.37,2013-04-24 09:11:00,
2013-04-24 04:16:00,34.8,29.6,30.24,North,1,5.9,9.2,81,0.00,CLR,,0.00,0.0,WeatherDisplay:10.37,2013-04-24 09:16:00,
2013-04-24 04:21:00,34.8,29.3,30.25,North,356,5.7,10.4,80,0.00,CLR,,0.00,0.0,WeatherDisplay:10.37,2013-04-24 09:21:00,
2013-04-24 04:26:00,34.7,29.5,30.25,North,6,5.3,6.9,81,0.00,CLR,,0.00,0.0,WeatherDisplay:10.37,2013-04-24 09:26:00,
2013-04-24 04:31:00,34.6,29.4,30.25,North,352,4.4,10.4,81,0.00,CLR,,0.00,0.0,WeatherDisplay:10.37,2013-04-24 09:31:00,
2013-04-24 04:36:00,34.6,29.4,30.25,NNW,343,4.5,8.1,81,0.00,CLR,,0.00,0.0,WeatherDisplay:10.37,2013-04-24 09:36:00,
2013-04-24 04:41:00,34.5,29.3,30.25,NNW,339,2.4,6.9,81,0.00,CLR,,0.00,0.0,WeatherDisplay:10.37,2013-04-24 09:41:00,
2013-04-24 04:46:00,34.4,29.2,30.25,North,351,5.0,8.1,81,0.00,CLR,,0.00,0.0,WeatherDisplay:10.37,2013-04-24 09:46:00,
2013-04-24 04:51:00,34.3,29.1,30.26,North,1,4.2,6.9,81,0.00,CLR,,0.00,0.0,WeatherDisplay:10.37,2013-04-24 09:51:00,
2013-04-24 04:56:00,34.5,29.3,30.26,North,356,4.4,8.1,81,0.00,CLR,,0.00,0.0,WeatherDisplay:10.37,2013-04-24 09:56:00,
2013-04-24 05:01:00,34.3,29.4,30.27,NNW,347,3.1,5.8,82,0.00,CLR,,0.00,0.0,WeatherDisplay:10.37,2013-04-24 10:01:00,
2013-04-24 05:06:00,34.2,29.3,30.27,NNW,346,4.3,6.9,82,0.00,CLR,,0.00,0.0,WeatherDisplay:10.37,2013-04-24 10:06:00,
2013-04-24 05:11:00,34.3,29.1,30.27,North,356,2.9,4.6,81,0.00,CLR,,0.00,0.0,WeatherDisplay:10.37,2013-04-24 10:11:00,
2013-04-24 05:16:00,34.2,29.0,30.27,NNW,345,4.4,8.1,81,0.00,CLR,,0.00,0.0,WeatherDisplay:10.37,2013-04-24 10:16:00,
2013-04-24 05:21:00,34.2,29.0,30.27,NNW,348,3.3,4.6,81,0.00,CLR,,0.00,0.0,WeatherDisplay:10.37,2013-04-24 10:21:00,
2013-04-24 05:26:00,34.0,29.1,30.27,North,6,5.1,9.2,82,0.00,CLR,,0.00,0.0,WeatherDisplay:10.37,2013-04-24 10:26:00,
2013-04-24 05:31:00,34.1,28.9,30.28,NW,306,3.8,9.0,81,0.00,CLR,,0.00,0.0,WeatherDisplay:10.37,2013-04-24 10:31:00,
2013-04-24 05:36:00,34.1,28.9,30.28,North,6,5.5,5.8,81,0.00,CLR,,0.00,0.0,WeatherDisplay:10.37,2013-04-24 10:36:00,
2013-04-24 05:41:00,33.9,28.7,30.28,NNW,343,5.5,9.2,81,0.00,CLR,,0.00,0.0,WeatherDisplay:10.37,2013-04-24 10:41:00,
2013-04-24 05:46:00,33.8,28.9,30.29,NNW,340,2.2,6.0,82,0.00,CLR,,0.00,0.0,WeatherDisplay:10.37,2013-04-24 10:46:00,
2013-04-24 05:51:00,33.8,28.9,30.29,NNW,347,4.7,9.2,82,0.00,CLR,,0.00,0.0,WeatherDisplay:10.37,2013-04-24 10:51:00,
2013-04-24 05:56:00,33.8,28.9,30.29,NNW,345,5.1,8.1,82,0.00,CLR,,0.00,0.0,WeatherDisplay:10.37,2013-04-24 10:56:00,
2013-04-24 06:01:00,33.7,28.8,30.30,North,351,7.1,9.2,82,0.00,CLR,,0.00,0.0,WeatherDisplay:10.37,2013-04-24 11:01:00,
2013-04-24 06:06:00,33.6,28.7,30.30,NNW,347,5.2,6.9,82,0.00,CLR,,0.00,0.0,WeatherDisplay:10.37,2013-04-24 11:06:00,
2013-04-24 06:11:00,33.5,28.6,30.30,North,356,5.6,10.4,82,0.00,CLR,,0.00,0.0,WeatherDisplay:10.37,2013-04-24 11:11:00,
2013-04-24 06:16:00,33.4,28.5,30.30,NNW,347,5.6,8.1,82,0.00,CLR,,0.00,0.0,WeatherDisplay:10.37,2013-04-24 11:16:00,
2013-04-24 06:21:00,33.4,28.8,30.30,NNW,347,5.5,8.1,83,0.00,CLR,,0.00,0.0,WeatherDisplay:10.37,2013-04-24 11:21:00,
2013-04-24 06:26:00,33.3,28.7,30.31,NNW,345,2.9,6.9,83,0.00,CLR,,0.00,0.0,WeatherDisplay:10.37,2013-04-24 11:26:00,
2013-04-24 06:31:00,33.2,28.6,30.31,NNW,345,1.4,3.5,83,0.00,CLR,,0.00,0.0,WeatherDisplay:10.37,2013-04-24 11:31:00,
2013-04-24 06:36:00,33.0,28.4,30.31,NNW,345,3.0,6.9,83,0.00,CLR,,0.00,0.0,WeatherDisplay:10.37,2013-04-24 11:36:00,
2013-04-24 06:41:00,32.9,28.6,30.31,NNW,345,1.0,3.5,84,0.00,CLR,,0.00,0.0,WeatherDisplay:10.37,2013-04-24 11:41:00,
2013-04-24 06:46:00,32.9,28.6,30.31,NNW,342,3.8,4.6,84,0.00,CLR,,0.00,0.0,WeatherDisplay:10.37,2013-04-24 11:46:00,
2013-04-24 06:51:00,33.0,28.7,30.31,NNW,341,4.9,5.0,84,0.00,CLR,,0.00,5.5,WeatherDisplay:10.37,2013-04-24 11:51:00,
2013-04-24 06:56:00,33.0,28.7,30.31,NNW,343,2.0,7.0,84,0.00,CLR,,0.00,9.9,WeatherDisplay:10.37,2013-04-24 11:56:00,
2013-04-24 07:01:00,33.0,28.7,30.31,NNW,346,4.2,5.8,84,0.00,CLR,,0.00,13.2,WeatherDisplay:10.37,2013-04-24 12:01:00,
2013-04-24 07:06:00,33.1,28.8,30.31,NNW,348,5.1,6.9,84,0.00,CLR,,0.00,15.4,WeatherDisplay:10.37,2013-04-24 12:06:00,
2013-04-24 07:11:00,33.3,30.4,30.31,North,351,4.7,5.8,89,0.00,CLR,,0.00,20.9,WeatherDisplay:10.37,2013-04-24 12:11:00,
2013-04-24 07:16:00,33.5,29.2,30.31,NNW,343,2.8,6.9,84,0.00,CLR,,0.00,27.5,WeatherDisplay:10.37,2013-04-24 12:16:00,
2013-04-24 07:21:00,33.7,29.1,30.31,NNW,345,2.9,8.1,83,0.00,CLR,,0.00,27.5,WeatherDisplay:10.37,2013-04-24 12:21:00,
2013-04-24 07:26:00,34.1,29.5,30.31,North,351,4.1,9.2,83,0.00,CLR,,0.00,48.4,WeatherDisplay:10.37,2013-04-24 12:26:00,
2013-04-24 07:31:00,34.5,29.6,30.31,NNW,338,3.3,4.6,82,0.00,CLR,,0.00,58.3,WeatherDisplay:10.37,2013-04-24 12:31:00,
2013-04-24 07:36:00,34.8,29.6,30.32,NNW,341,3.3,5.8,81,0.00,CLR,,0.00,42.9,WeatherDisplay:10.37,2013-04-24 12:36:00,
2013-04-24 07:41:00,35.1,29.9,30.32,NNE,20,5.2,6.9,81,0.00,CLR,,0.00,51.7,WeatherDisplay:10.37,2013-04-24 12:41:00,
2013-04-24 07:46:00,35.0,29.5,30.32,North,356,4.4,8.1,80,0.00,CLR,,0.00,36.3,WeatherDisplay:10.37,2013-04-24 12:46:00,
2013-04-24 07:51:00,35.1,29.9,30.32,NNE,19,6.5,9.2,81,0.00,CLR,,0.00,38.5,WeatherDisplay:10.37,2013-04-24 12:51:00,
2013-04-24 07:56:00,35.1,29.6,30.33,North,349,6.0,8.0,80,0.00,CLR,,0.00,40.7,WeatherDisplay:10.37,2013-04-24 12:56:00,
2013-04-24 08:01:00,35.1,29.9,30.33,NNW,344,4.7,16.1,81,0.00,CLR,,0.00,42.9,WeatherDisplay:10.37,2013-04-24 13:01:00,
2013-04-24 08:06:00,35.3,30.1,30.33,NNW,342,3.7,4.0,81,0.00,CLR,,0.00,44.0,WeatherDisplay:10.37,2013-04-24 13:06:00,
2013-04-24 08:11:00,35.5,30.2,30.33,North,351,4.1,8.1,81,0.00,CLR,,0.00,102.3,WeatherDisplay:10.37,2013-04-24 13:11:00,
2013-04-24 08:16:00,35.7,30.4,30.34,North,356,6.3,9.2,81,0.00,CLR,,0.00,251.9,WeatherDisplay:10.37,2013-04-24 13:16:00,
2013-04-24 08:21:00,36.0,30.7,30.34,North,356,9.4,16.1,81,0.00,CLR,,0.00,272.8,WeatherDisplay:10.37,2013-04-24 13:21:00,
2013-04-24 08:26:00,36.4,30.8,30.34,NNE,13,1.9,4.6,80,0.00,CLR,,0.00,290.4,WeatherDisplay:10.37,2013-04-24 13:26:00,
2013-04-24 08:31:00,37.3,31.4,30.33,North,6,6.9,10.4,79,0.00,CLR,,0.00,311.3,WeatherDisplay:10.37,2013-04-24 13:31:00,
2013-04-24 08:36:00,37.6,31.4,30.34,NNE,31,4.3,8.1,78,0.00,CLR,,0.00,332.2,WeatherDisplay:10.37,2013-04-24 13:36:00,
2013-04-24 08:41:00,37.9,31.3,30.34,NNW,343,8.8,11.5,77,0.00,CLR,,0.00,354.2,WeatherDisplay:10.37,2013-04-24 13:41:00,
2013-04-24 08:46:00,38.2,31.6,30.34,North,1,6.8,11.5,77,0.00,CLR,,0.00,371.8,WeatherDisplay:10.37,2013-04-24 13:46:00,
2013-04-24 08:51:00,38.7,31.8,30.34,NNW,340,3.6,7.0,76,0.00,CLR,,0.00,394.9,WeatherDisplay:10.37,2013-04-24 13:51:00,
2013-04-24 08:56:00,38.8,31.2,30.34,North,356,6.5,11.5,74,0.00,CLR,,0.00,415.8,WeatherDisplay:10.37,2013-04-24 13:56:00,
2013-04-24 09:01:00,39.4,31.5,30.34,North,6,8.1,15.0,73,0.00,CLR,,0.00,433.4,WeatherDisplay:10.37,2013-04-24 14:01:00,
2013-04-24 09:06:00,39.5,31.6,30.33,North,6,5.1,10.4,73,0.00,CLR,,0.00,454.3,WeatherDisplay:10.37,2013-04-24 14:06:00,
2013-04-24 09:11:00,39.9,31.6,30.33,NNW,330,8.0,11.5,72,0.00,CLR,,0.00,475.2,WeatherDisplay:10.37,2013-04-24 14:11:00,
2013-04-24 09:16:00,40.8,32.8,30.33,NNE,26,4.2,11.0,73,0.00,CLR,,0.00,492.8,WeatherDisplay:10.37,2013-04-24 14:16:00,
2013-04-24 09:21:00,41.3,32.6,30.34,NE,37,6.1,11.5,71,0.00,CLR,,0.00,515.9,WeatherDisplay:10.37,2013-04-24 14:21:00,
2013-04-24 09:26:00,41.7,31.5,30.34,NE,41,8.8,11.5,67,0.00,CLR,,0.00,537.9,WeatherDisplay:10.37,2013-04-24 14:26:00,
2013-04-24 09:31:00,41.4,31.6,30.34,NNW,340,6.1,9.2,68,0.00,CLR,,0.00,556.6,WeatherDisplay:10.37,2013-04-24 14:31:00,
2013-04-24 09:36:00,41.8,32.0,30.34,NNE,16,6.3,11.5,68,0.00,CLR,,0.00,574.2,WeatherDisplay:10.37,2013-04-24 14:36:00,
2013-04-24 09:41:00,42.2,32.0,30.34,ENE,62,8.9,12.7,67,0.00,CLR,,0.00,594.0,WeatherDisplay:10.37,2013-04-24 14:41:00,
2013-04-24 09:46:00,42.4,31.8,30.34,North,11,4.3,8.1,66,0.00,CLR,,0.00,614.9,WeatherDisplay:10.37,2013-04-24 14:46:00,
2013-04-24 09:51:00,42.8,31.1,30.34,NNE,22,5.3,13.8,63,0.00,CLR,,0.00,632.5,WeatherDisplay:10.37,2013-04-24 14:51:00,
2013-04-24 09:56:00,43.3,31.5,30.34,NNE,33,8.2,11.5,63,0.00,CLR,,0.00,650.1,WeatherDisplay:10.37,2013-04-24 14:56:00,
2013-04-24 10:01:00,43.6,32.2,30.34,ENE,59,7.9,12.0,64,0.00,CLR,,0.00,668.8,WeatherDisplay:10.37,2013-04-24 15:01:00,
2013-04-24 10:09:00,43.6,31.0,30.34,NE,35,4.9,13.8,61,0.00,CLR,,0.00,691.9,WeatherDisplay:10.37,2013-04-24 15:09:00,
2013-04-24 10:14:00,44.3,31.3,30.34,ENE,60,5.7,10.4,60,0.00,CLR,,0.00,713.9,WeatherDisplay:10.37,2013-04-24 15:14:00,
2013-04-24 10:19:00,44.6,31.6,30.33,NE,37,5.8,9.2,60,0.00,CLR,,0.00,730.4,WeatherDisplay:10.37,2013-04-24 15:19:00,
2013-04-24 10:24:00,45.2,30.4,30.33,NNE,24,7.8,11.5,56,0.00,CLR,,0.00,746.9,WeatherDisplay:10.37,2013-04-24 15:24:00,
2013-04-24 10:29:00,45.4,29.7,30.33,NNE,27,7.5,13.0,54,0.00,CLR,,0.00,762.3,WeatherDisplay:10.37,2013-04-24 15:29:00,
2013-04-24 10:34:00,45.4,30.6,30.33,North,11,5.0,5.0,56,0.00,CLR,,0.00,777.7,WeatherDisplay:10.37,2013-04-24 15:34:00,
2013-04-24 10:39:00,45.5,29.3,30.34,NNE,12,5.8,10.4,53,0.00,CLR,,0.00,793.1,WeatherDisplay:10.37,2013-04-24 15:39:00,
2013-04-24 10:44:00,46.1,29.9,30.34,NE,49,6.8,13.8,53,0.00,CLR,,0.00,808.5,WeatherDisplay:10.37,2013-04-24 15:44:00,
2013-04-24 10:49:00,47.2,30.0,30.34,North,6,9.5,16.1,51,0.00,CLR,,0.00,821.7,WeatherDisplay:10.37,2013-04-24 15:49:00,
2013-04-24 10:54:00,47.3,29.6,30.34,North,356,6.2,11.5,50,0.00,CLR,,0.00,837.1,WeatherDisplay:10.37,2013-04-24 15:54:00,
2013-04-24 10:59:00,47.1,30.8,30.33,North,6,1.9,6.9,53,0.00,CLR,,0.00,849.2,WeatherDisplay:10.37,2013-04-24 15:59:00,
2013-04-24 11:04:00,48.1,30.8,30.33,NNE,25,6.4,10.4,51,0.00,CLR,,0.00,864.6,WeatherDisplay:10.37,2013-04-24 16:04:00,
2013-04-24 11:09:00,47.8,30.0,30.33,NNE,17,7.1,11.5,50,0.00,CLR,,0.00,877.8,WeatherDisplay:10.37,2013-04-24 16:09:00,
2013-04-24 11:14:00,48.5,31.2,30.33,NNE,25,7.3,13.8,51,0.00,CLR,,0.00,891.0,WeatherDisplay:10.37,2013-04-24 16:14:00,
2013-04-24 11:19:00,48.8,29.4,30.33,NE,41,9.2,16.1,47,0.00,CLR,,0.00,906.4,WeatherDisplay:10.37,2013-04-24 16:19:00,
2013-04-24 11:24:00,48.6,28.7,30.33,NE,38,10.4,17.3,46,0.00,CLR,,0.00,918.5,WeatherDisplay:10.37,2013-04-24 16:24:00,
2013-04-24 11:29:00,49.0,30.1,30.33,NNW,347,7.4,12.0,48,0.00,CLR,,0.00,930.6,WeatherDisplay:10.37,2013-04-24 16:29:00,
2013-04-24 11:34:00,49.0,29.1,30.33,NNE,29,8.4,12.7,46,0.00,CLR,,0.00,939.4,WeatherDisplay:10.37,2013-04-24 16:34:00,
2013-04-24 11:39:00,49.0,30.1,30.33,NNW,343,6.7,16.0,48,0.00,CLR,,0.00,951.5,WeatherDisplay:10.37,2013-04-24 16:39:00,
2013-04-24 11:44:00,49.5,29.0,30.33,NNW,341,9.8,15.0,45,0.00,CLR,,0.00,961.4,WeatherDisplay:10.37,2013-04-24 16:44:00,
2013-04-24 11:49:00,49.8,27.0,30.33,NNE,29,8.3,16.1,41,0.00,CLR,,0.00,970.2,WeatherDisplay:10.37,2013-04-24 16:49:00,
2013-04-24 11:54:00,50.3,29.7,30.33,NNW,343,5.4,10.4,45,0.00,CLR,,0.00,980.1,WeatherDisplay:10.37,2013-04-24 16:54:00,
2013-04-24 11:59:00,51.3,32.3,30.33,NNE,25,3.1,3.5,48,0.00,CLR,,0.00,990.0,WeatherDisplay:10.37,2013-04-24 16:59:00,
2013-04-24 12:04:00,52.2,30.4,30.33,North,356,6.1,12.0,43,0.00,CLR,,0.00,1002.1,WeatherDisplay:10.37,2013-04-24 17:04:00,
2013-04-24 12:09:00,51.9,30.1,30.33,ENE,63,10.1,16.1,43,0.00,CLR,,0.00,1007.6,WeatherDisplay:10.37,2013-04-24 17:09:00,
2013-04-24 12:14:00,51.9,30.1,30.33,ENE,69,5.5,11.5,43,0.00,CLR,,0.00,1018.6,WeatherDisplay:10.37,2013-04-24 17:14:00,
2013-04-24 12:19:00,51.7,29.3,30.32,NNW,344,6.0,11.5,42,0.00,CLR,,0.00,1020.8,WeatherDisplay:10.37,2013-04-24 17:19:00,
2013-04-24 12:24:00,52.4,28.8,30.32,North,6,9.1,16.1,40,0.00,CLR,,0.00,1028.5,WeatherDisplay:10.37,2013-04-24 17:24:00,
2013-04-24 12:29:00,52.3,28.7,30.32,NNE,30,3.9,8.1,40,0.00,CLR,,0.00,1036.2,WeatherDisplay:10.37,2013-04-24 17:29:00,
2013-04-24 12:34:00,52.7,31.9,30.32,NNE,19,7.5,12.7,45,0.00,CLR,,0.00,1043.9,WeatherDisplay:10.37,2013-04-24 17:34:00,
2013-04-24 12:39:00,52.9,31.6,30.32,ENE,57,6.2,10.4,44,0.00,CLR,,0.00,1049.4,WeatherDisplay:10.37,2013-04-24 17:39:00,
2013-04-24 12:44:00,53.5,31.0,30.32,NE,40,7.2,10.0,42,0.00,CLR,,0.00,1049.4,WeatherDisplay:10.37,2013-04-24 17:44:00,
2013-04-24 12:49:00,54.1,32.1,30.31,NNE,23,2.8,3.5,43,0.00,CLR,,0.00,1058.2,WeatherDisplay:10.37,2013-04-24 17:49:00,
2013-04-24 12:54:00,54.1,31.5,30.31,NE,43,6.7,10.4,42,0.00,CLR,,0.00,1061.5,WeatherDisplay:10.37,2013-04-24 17:54:00,
2013-04-24 12:59:00,53.9,30.7,30.31,NE,37,8.2,13.8,41,0.00,CLR,,0.00,1063.7,WeatherDisplay:10.37,2013-04-24 17:59:00,
2013-04-24 13:04:00,54.0,30.2,30.31,NNE,16,1.6,3.5,40,0.00,CLR,,0.00,1069.2,WeatherDisplay:10.37,2013-04-24 18:04:00,
2013-04-24 13:09:00,54.3,32.8,30.30,NNE,16,0.6,4.0,44,0.00,CLR,,0.00,1069.2,WeatherDisplay:10.37,2013-04-24 18:09:00,
2013-04-24 13:14:00,55.0,32.3,30.30,NNW,345,6.9,10.4,42,0.00,CLR,,0.00,1071.4,WeatherDisplay:10.37,2013-04-24 18:14:00,
2013-04-24 13:19:00,55.4,33.3,30.30,NNE,18,3.7,8.0,43,0.00,CLR,,0.00,1073.6,WeatherDisplay:10.37,2013-04-24 18:19:00,
2013-04-24 13:24:00,55.1,29.3,30.30,North,352,6.5,9.2,37,0.00,CLR,,0.00,1074.7,WeatherDisplay:10.37,2013-04-24 18:24:00,
2013-04-24 13:29:00,55.4,30.8,30.30,NE,45,4.9,11.0,39,0.00,CLR,,0.00,1074.7,WeatherDisplay:10.37,2013-04-24 18:29:00,
2013-04-24 13:34:00,55.4,30.8,30.29,NNE,25,2.2,10.0,39,0.00,CLR,,0.00,1076.9,WeatherDisplay:10.37,2013-04-24 18:34:00,
2013-04-24 13:39:00,55.4,32.7,30.29,North,6,1.0,3.5,42,0.00,CLR,,0.00,1073.6,WeatherDisplay:10.37,2013-04-24 18:39:00,
2013-04-24 13:44:00,56.1,32.7,30.29,NNE,27,7.2,11.5,41,0.00,CLR,,0.00,1071.4,WeatherDisplay:10.37,2013-04-24 18:44:00,
2013-04-24 13:49:00,56.1,33.3,30.28,NNE,12,1.8,5.8,42,0.00,CLR,,0.00,1073.6,WeatherDisplay:10.37,2013-04-24 18:49:00,
2013-04-24 13:54:00,56.2,31.5,30.28,NNE,27,2.4,5.8,39,0.00,CLR,,0.00,1069.2,WeatherDisplay:10.37,2013-04-24 18:54:00,
2013-04-24 13:59:00,56.5,33.1,30.28,NNE,12,1.3,5.8,41,0.00,CLR,,0.00,1065.9,WeatherDisplay:10.37,2013-04-24 18:59:00,
2013-04-24 14:04:00,57.1,34.8,30.28,NE,41,1.4,4.6,43,0.00,CLR,,0.00,1063.7,WeatherDisplay:10.37,2013-04-24 19:04:00,
2013-04-24 14:09:00,57.3,33.2,30.28,NE,44,5.6,10.4,40,0.00,CLR,,0.00,1061.5,WeatherDisplay:10.37,2013-04-24 19:09:00,
2013-04-24 14:14:00,57.7,32.9,30.28,NNE,26,3.5,6.9,39,0.00,CLR,,0.00,1056.0,WeatherDisplay:10.37,2013-04-24 19:14:00,
2013-04-24 14:19:00,57.3,32.5,30.27,NNE,25,4.6,10.4,39,0.00,CLR,,0.00,1051.6,WeatherDisplay:10.37,2013-04-24 19:19:00,
2013-04-24 14:24:00,57.8,31.7,30.27,East,92,6.4,11.5,37,0.00,CLR,,0.00,1048.3,WeatherDisplay:10.37,2013-04-24 19:24:00,
2013-04-24 14:29:00,57.2,31.8,30.27,NE,42,6.7,11.5,38,0.00,CLR,,0.00,1040.6,WeatherDisplay:10.37,2013-04-24 19:29:00,
2013-04-24 14:34:00,56.9,30.9,30.27,North,10,4.6,8.1,37,0.00,CLR,,0.00,1032.9,WeatherDisplay:10.37,2013-04-24 19:34:00,
2013-04-24 14:39:00,57.2,33.7,30.27,ENE,70,7.1,11.5,41,0.00,CLR,,0.00,1028.5,WeatherDisplay:10.37,2013-04-24 19:39:00,
2013-04-24 14:44:00,57.7,31.6,30.27,NNE,12,4.9,9.2,37,0.00,CLR,,0.00,1018.6,WeatherDisplay:10.37,2013-04-24 19:44:00,
2013-04-24 14:49:00,58.3,33.4,30.27,NNE,18,4.7,6.0,39,0.00,CLR,,0.00,1013.1,WeatherDisplay:10.37,2013-04-24 19:49:00,
2013-04-24 14:54:00,58.3,33.4,30.27,NE,43,6.1,9.2,39,0.00,CLR,,0.00,1005.4,WeatherDisplay:10.37,2013-04-24 19:54:00,
2013-04-24 14:59:00,58.4,32.9,30.27,NNE,22,3.1,9.2,38,0.00,CLR,,0.00,994.4,WeatherDisplay:10.37,2013-04-24 19:59:00,
2013-04-24 15:04:00,58.4,32.2,30.27,ENE,60,1.8,4.6,37,0.00,CLR,,0.00,990.0,WeatherDisplay:10.37,2013-04-24 20:04:00,
2013-04-24 15:09:00,59.0,34.1,30.26,NE,41,3.7,5.8,39,0.00,CLR,,0.00,980.1,WeatherDisplay:10.37,2013-04-24 20:09:00,
2013-04-24 15:14:00,58.7,33.8,30.26,NE,45,6.2,11.5,39,0.00,CLR,,0.00,969.1,WeatherDisplay:10.37,2013-04-24 20:14:00,
2013-04-24 15:19:00,58.6,31.7,30.26,NNE,14,5.8,10.4,36,0.00,CLR,,0.00,957.0,WeatherDisplay:10.37,2013-04-24 20:19:00,
2013-04-24 15:24:00,58.8,31.2,30.26,NE,34,2.0,3.5,35,0.00,CLR,,0.00,946.0,WeatherDisplay:10.37,2013-04-24 20:24:00,
2013-04-24 15:29:00,59.6,32.6,30.26,North,1,7.6,11.5,36,0.00,CLR,,0.00,936.1,WeatherDisplay:10.37,2013-04-24 20:29:00,
2013-04-24 15:34:00,59.8,33.5,30.26,NE,45,7.9,12.0,37,0.00,CLR,,0.00,924.0,WeatherDisplay:10.37,2013-04-24 20:34:00,
2013-04-24 15:39:00,58.8,31.9,30.25,NE,47,4.5,7.0,36,0.00,CLR,,0.00,913.0,WeatherDisplay:10.37,2013-04-24 20:39:00,
2013-04-24 15:44:00,59.1,31.4,30.25,North,356,6.6,10.4,35,0.00,CLR,,0.00,900.9,WeatherDisplay:10.37,2013-04-24 20:44:00,
2013-04-24 15:49:00,59.7,31.3,30.25,NE,41,6.6,11.5,34,0.00,CLR,,0.00,887.7,WeatherDisplay:10.37,2013-04-24 20:49:00,
2013-04-24 15:54:00,59.5,31.1,30.25,North,1,6.3,10.4,34,0.00,CLR,,0.00,872.3,WeatherDisplay:10.37,2013-04-24 20:54:00,
2013-04-24 15:59:00,59.7,33.4,30.24,NE,41,4.5,12.7,37,0.00,CLR,,0.00,858.0,WeatherDisplay:10.37,2013-04-24 20:59:00,
2013-04-24 16:04:00,60.0,30.0,30.24,North,356,4.4,9.2,32,0.00,CLR,,0.00,844.8,WeatherDisplay:10.37,2013-04-24 21:04:00,
2013-04-24 16:09:00,60.2,31.7,30.24,NNE,23,4.9,11.5,34,0.00,CLR,,0.00,831.6,WeatherDisplay:10.37,2013-04-24 21:09:00,
2013-04-24 16:14:00,60.2,31.0,30.24,North,6,5.3,9.2,33,0.00,CLR,,0.00,816.2,WeatherDisplay:10.37,2013-04-24 21:14:00,
2013-04-24 16:19:00,60.3,33.2,30.23,NE,48,5.8,9.2,36,0.00,CLR,,0.00,801.9,WeatherDisplay:10.37,2013-04-24 21:19:00,
2013-04-24 16:24:00,61.1,34.6,30.23,NNW,346,4.8,10.4,37,0.00,CLR,,0.00,785.4,WeatherDisplay:10.37,2013-04-24 21:24:00,
2013-04-24 16:29:00,61.0,33.1,30.23,ENE,61,2.3,2.3,35,0.00,CLR,,0.00,770.0,WeatherDisplay:10.37,2013-04-24 21:29:00,
2013-04-24 16:34:00,61.0,30.9,30.23,NE,49,6.6,10.4,32,0.00,CLR,,0.00,752.4,WeatherDisplay:10.37,2013-04-24 21:34:00,
2013-04-24 16:39:00,61.2,34.7,30.23,NNE,14,3.5,6.9,37,0.00,CLR,,0.00,738.1,WeatherDisplay:10.37,2013-04-24 21:39:00,
2013-04-24 16:44:00,61.1,33.2,30.23,NNE,27,1.9,5.0,35,0.00,CLR,,0.00,719.4,WeatherDisplay:10.37,2013-04-24 21:44:00,
2013-04-24 16:49:00,60.8,33.0,30.23,ENE,67,6.3,11.5,35,0.00,CLR,,0.00,706.2,WeatherDisplay:10.37,2013-04-24 21:49:00,
2013-04-24 16:54:00,60.8,32.2,30.23,NE,42,2.9,4.6,34,0.00,CLR,,0.00,686.4,WeatherDisplay:10.37,2013-04-24 21:54:00,
2013-04-24 16:59:00,60.9,32.3,30.23,NNE,26,4.5,7.0,34,0.00,CLR,,0.00,666.6,WeatherDisplay:10.37,2013-04-24 21:59:00,
2013-04-24 17:04:00,61.0,32.4,30.23,NE,43,3.3,6.9,34,0.00,CLR,,0.00,647.9,WeatherDisplay:10.37,2013-04-24 22:04:00,
2013-04-24 17:09:00,60.8,33.0,30.23,ENE,63,6.9,10.0,35,0.00,CLR,,0.00,630.3,WeatherDisplay:10.37,2013-04-24 22:09:00,
2013-04-24 17:14:00,60.4,31.1,30.23,NE,42,3.7,10.4,33,0.00,CLR,,0.00,614.9,WeatherDisplay:10.37,2013-04-24 22:14:00,
2013-04-24 17:19:00,60.7,32.1,30.22,NE,53,4.0,11.5,34,0.00,CLR,,0.00,595.1,WeatherDisplay:10.37,2013-04-24 22:19:00,
2013-04-24 17:24:00,61.2,34.0,30.22,NE,45,0.0,3.5,36,0.00,CLR,,0.00,576.4,WeatherDisplay:10.37,2013-04-24 22:24:00,
2013-04-24 17:29:00,61.1,33.2,30.22,ENE,65,7.1,12.7,35,0.00,CLR,,0.00,475.2,WeatherDisplay:10.37,2013-04-24 22:29:00,
2013-04-24 17:34:00,60.4,32.6,30.22,ENE,69,0.8,3.5,35,0.00,CLR,,0.00,535.7,WeatherDisplay:10.37,2013-04-24 22:34:00,
2013-04-24 17:39:00,61.3,33.4,30.22,NE,41,4.2,7.0,35,0.00,CLR,,0.00,518.1,WeatherDisplay:10.37,2013-04-24 22:39:00,
2013-04-24 17:44:00,61.1,33.2,30.22,East,85,3.2,6.0,35,0.00,CLR,,0.00,495.0,WeatherDisplay:10.37,2013-04-24 22:44:00,
2013-04-24 17:49:00,60.9,32.3,30.22,NNE,32,4.9,8.1,34,0.00,CLR,,0.00,481.8,WeatherDisplay:10.37,2013-04-24 22:49:00,
2013-04-24 17:54:00,60.8,33.0,30.22,NE,41,1.6,5.8,35,0.00,CLR,,0.00,458.7,WeatherDisplay:10.37,2013-04-24 22:54:00,
2013-04-24 17:59:00,60.7,33.6,30.22,NNE,32,4.6,8.1,36,0.00,CLR,,0.00,431.2,WeatherDisplay:10.37,2013-04-24 22:59:00,
2013-04-24 18:04:00,60.6,32.1,30.22,ENE,58,4.1,5.8,34,0.00,CLR,,0.00,418.0,WeatherDisplay:10.37,2013-04-24 23:04:00,
2013-04-24 18:09:00,60.8,33.7,30.23,ENE,65,2.0,6.0,36,0.00,CLR,,0.00,398.2,WeatherDisplay:10.37,2013-04-24 23:09:00,
2013-04-24 18:14:00,60.6,32.8,30.23,NE,36,3.0,3.5,35,0.00,CLR,,0.00,379.5,WeatherDisplay:10.37,2013-04-24 23:14:00,
2013-04-24 18:19:00,59.9,32.2,30.23,NE,50,2.1,8.1,35,0.00,CLR,,0.00,355.3,WeatherDisplay:10.37,2013-04-24 23:19:00,
2013-04-24 18:24:00,60.2,31.7,30.23,NNE,25,3.8,8.1,34,0.00,CLR,,0.00,336.6,WeatherDisplay:10.37,2013-04-24 23:24:00,
2013-04-24 18:29:00,59.9,33.5,30.23,NE,37,4.4,7.0,37,0.00,CLR,,0.00,315.7,WeatherDisplay:10.37,2013-04-24 23:29:00,
2013-04-24 18:34:00,59.7,32.0,30.23,NE,38,1.9,3.5,35,0.00,CLR,,0.00,298.1,WeatherDisplay:10.37,2013-04-24 23:34:00,
2013-04-24 18:39:00,59.3,31.6,30.23,NE,48,1.7,2.3,35,0.00,CLR,,0.00,243.1,WeatherDisplay:10.37,2013-04-24 23:39:00,
2013-04-24 18:44:00,58.4,32.2,30.23,NE,37,1.9,5.8,37,0.00,CLR,,0.00,66.0,WeatherDisplay:10.37,2013-04-24 23:44:00,
2013-04-24 18:49:00,57.8,31.0,30.23,NE,50,4.0,11.5,36,0.00,CLR,,0.00,58.3,WeatherDisplay:10.37,2013-04-24 23:49:00,
2013-04-24 18:54:00,57.5,32.1,30.24,NE,50,4.0,5.8,38,0.00,CLR,,0.00,56.1,WeatherDisplay:10.37,2013-04-24 23:54:00,
2013-04-24 18:59:00,57.3,33.2,30.24,NE,54,0.4,4.0,40,0.00,CLR,,0.00,51.7,WeatherDisplay:10.37,2013-04-24 23:59:00,
2013-04-24 19:04:00,57.1,30.4,30.24,NE,53,3.0,5.8,36,0.00,CLR,,0.00,46.2,WeatherDisplay:10.37,2013-04-25 00:04:00,
2013-04-24 19:09:00,56.7,31.4,30.24,NE,55,2.1,4.6,38,0.00,CLR,,0.00,51.7,WeatherDisplay:10.37,2013-04-25 00:09:00,
2013-04-24 19:14:00,56.5,31.2,30.24,NE,54,2.5,4.6,38,0.00,CLR,,0.00,44.0,WeatherDisplay:10.37,2013-04-25 00:14:00,
2013-04-24 19:19:00,55.9,32.5,30.24,NE,54,0.5,2.3,41,0.00,CLR,,0.00,35.2,WeatherDisplay:10.37,2013-04-25 00:19:00,
2013-04-24 19:24:00,55.5,32.2,30.25,NE,49,1.7,3.5,41,0.00,CLR,,0.00,27.5,WeatherDisplay:10.37,2013-04-25 00:24:00,
2013-04-24 19:29:00,55.1,32.4,30.24,NE,44,4.5,10.4,42,0.00,CLR,,0.00,25.3,WeatherDisplay:10.37,2013-04-25 00:29:00,
2013-04-24 19:34:00,54.6,32.5,30.24,NE,44,2.4,5.0,43,0.00,CLR,,0.00,28.6,WeatherDisplay:10.37,2013-04-25 00:34:00,
2013-04-24 19:39:00,54.0,32.6,30.25,NE,44,1.3,2.3,44,0.00,CLR,,0.00,30.8,WeatherDisplay:10.37,2013-04-25 00:39:00,
2013-04-24 19:44:00,53.6,31.6,30.25,NE,44,1.9,2.3,43,0.00,CLR,,0.00,33.0,WeatherDisplay:10.37,2013-04-25 00:44:00,
2013-04-24 19:49:00,53.3,33.0,30.25,NE,44,2.2,3.5,46,0.00,CLR,,0.00,20.9,WeatherDisplay:10.37,2013-04-25 00:49:00,
2013-04-24 19:54:00,52.8,34.7,30.25,NE,44,1.5,2.3,50,0.00,CLR,,0.00,13.2,WeatherDisplay:10.37,2013-04-25 00:54:00,
2013-04-24 19:59:00,52.0,33.9,30.25,NE,44,1.4,2.3,50,0.00,CLR,,0.00,7.7,WeatherDisplay:10.37,2013-04-25 00:59:00,
2013-04-24 20:04:00,51.2,33.2,30.25,NE,44,2.3,3.5,50,0.00,CLR,,0.00,5.5,WeatherDisplay:10.37,2013-04-25 01:04:00,
2013-04-24 20:09:00,50.8,34.7,30.25,NE,44,2.1,3.5,54,0.00,CLR,,0.00,0.0,WeatherDisplay:10.37,2013-04-25 01:09:00,
2013-04-24 20:14:00,50.1,34.5,30.26,NE,44,0.0,2.3,55,0.00,CLR,,0.00,0.0,WeatherDisplay:10.37,2013-04-25 01:14:00,
2013-04-24 20:19:00,49.6,33.6,30.26,NE,44,1.4,2.3,54,0.00,CLR,,0.00,0.0,WeatherDisplay:10.37,2013-04-25 01:19:00,
2013-04-24 20:24:00,49.2,33.3,30.26,NE,44,2.5,3.5,54,0.00,CLR,,0.00,0.0,WeatherDisplay:10.37,2013-04-25 01:24:00,
2013-04-24 20:29:00,48.5,34.4,30.26,NE,44,1.1,2.3,58,0.00,CLR,,0.00,0.0,WeatherDisplay:10.37,2013-04-25 01:29:00,
2013-04-24 20:34:00,47.9,35.1,30.26,NE,44,2.2,3.5,61,0.00,CLR,,0.00,0.0,WeatherDisplay:10.37,2013-04-25 01:34:00,
2013-04-24 20:39:00,47.4,36.6,30.27,NE,44,2.6,3.5,66,0.00,CLR,,0.00,0.0,WeatherDisplay:10.37,2013-04-25 01:39:00,
2013-04-24 20:44:00,47.0,34.6,30.27,NE,44,1.4,3.5,62,0.00,CLR,,0.00,0.0,WeatherDisplay:10.37,2013-04-25 01:44:00,
2013-04-24 20:49:00,46.7,34.8,30.27,NE,44,0.8,3.5,63,0.00,CLR,,0.00,0.0,WeatherDisplay:10.37,2013-04-25 01:49:00,
2013-04-24 20:54:00,46.3,34.8,30.28,NE,44,0.8,2.3,64,0.00,CLR,,0.00,0.0,WeatherDisplay:10.37,2013-04-25 01:54:00,
2013-04-24 20:59:00,46.2,33.9,30.28,NE,44,0.0,0.0,62,0.00,CLR,,0.00,0.0,WeatherDisplay:10.37,2013-04-25 01:59:00,
2013-04-24 21:04:00,46.1,35.4,30.28,NE,44,0.0,0.0,66,0.00,CLR,,0.00,0.0,WeatherDisplay:10.37,2013-04-25 02:04:00,
2013-04-24 21:09:00,45.6,34.9,30.28,NE,44,0.0,0.0,66,0.00,CLR,,0.00,0.0,WeatherDisplay:10.37,2013-04-25 02:09:00,
2013-04-24 21:14:00,45.4,34.7,30.28,NE,44,0.0,0.0,66,0.00,CLR,,0.00,0.0,WeatherDisplay:10.37,2013-04-25 02:14:00,
2013-04-24 21:19:00,45.1,34.4,30.28,NE,44,0.0,0.0,66,0.00,CLR,,0.00,0.0,WeatherDisplay:10.37,2013-04-25 02:19:00,
2013-04-24 21:24:00,44.8,33.7,30.29,NE,44,0.0,0.0,65,0.00,CLR,,0.00,0.0,WeatherDisplay:10.37,2013-04-25 02:24:00,
2013-04-24 21:29:00,44.6,33.9,30.29,NE,44,0.0,0.0,66,0.00,CLR,,0.00,0.0,WeatherDisplay:10.37,2013-04-25 02:29:00,
2013-04-24 21:34:00,44.5,33.8,30.29,NE,44,0.0,0.0,66,0.00,CLR,,0.00,0.0,WeatherDisplay:10.37,2013-04-25 02:34:00,
2013-04-24 21:39:00,44.4,34.5,30.29,NE,44,0.0,0.0,68,0.00,CLR,,0.00,0.0,WeatherDisplay:10.37,2013-04-25 02:39:00,
2013-04-24 21:44:00,44.1,34.2,30.29,NE,44,0.0,0.0,68,0.00,CLR,,0.00,0.0,WeatherDisplay:10.37,2013-04-25 02:44:00,
2013-04-24 21:49:00,44.1,34.2,30.29,NE,44,0.0,0.0,68,0.00,CLR,,0.00,0.0,WeatherDisplay:10.37,2013-04-25 02:49:00,
2013-04-24 21:54:00,44.0,34.5,30.29,NE,44,0.0,0.0,69,0.00,CLR,,0.00,0.0,WeatherDisplay:10.37,2013-04-25 02:54:00,
2013-04-24 21:59:00,43.8,34.3,30.30,NE,44,0.0,0.0,69,0.00,CLR,,0.00,0.0,WeatherDisplay:10.37,2013-04-25 02:59:00,
2013-04-24 22:04:00,43.6,33.7,30.30,NE,44,0.0,0.0,68,0.00,CLR,,0.00,0.0,WeatherDisplay:10.37,2013-04-25 03:04:00,
2013-04-24 22:09:00,43.5,33.6,30.30,NE,44,0.0,0.0,68,0.00,CLR,,0.00,0.0,WeatherDisplay:10.37,2013-04-25 03:09:00,
2013-04-24 22:14:00,43.2,33.3,30.31,NE,44,0.0,0.0,68,0.00,CLR,,0.00,0.0,WeatherDisplay:10.37,2013-04-25 03:14:00,
2013-04-24 22:19:00,43.3,33.1,30.31,NE,44,0.0,0.0,67,0.00,CLR,,0.00,0.0,WeatherDisplay:10.37,2013-04-25 03:19:00,
2013-04-24 22:24:00,43.8,33.9,30.31,NE,44,0.0,0.0,68,0.00,CLR,,0.00,0.0,WeatherDisplay:10.37,2013-04-25 03:24:00,
2013-04-24 22:29:00,43.4,33.9,30.31,NE,44,0.0,0.0,69,0.00,CLR,,0.00,0.0,WeatherDisplay:10.37,2013-04-25 03:29:00,
2013-04-24 22:34:00,43.0,33.9,30.31,NE,44,1.8,3.5,70,0.00,CLR,,0.00,0.0,WeatherDisplay:10.37,2013-04-25 03:34:00,
2013-04-24 22:39:00,42.7,34.3,30.32,NE,44,0.0,3.5,72,0.00,CLR,,0.00,0.0,WeatherDisplay:10.37,2013-04-25 03:39:00,
2013-04-24 22:44:00,42.6,33.9,30.32,NE,44,0.0,0.0,71,0.00,CLR,,0.00,0.0,WeatherDisplay:10.37,2013-04-25 03:44:00,
2013-04-24 22:49:00,42.4,34.0,30.32,NE,44,0.0,0.0,72,0.00,CLR,,0.00,0.0,WeatherDisplay:10.37,2013-04-25 03:49:00,
2013-04-24 22:54:00,42.5,33.4,30.32,NE,44,0.0,0.0,70,0.00,CLR,,0.00,0.0,WeatherDisplay:10.37,2013-04-25 03:54:00,
2013-04-24 22:59:00,42.2,34.2,30.32,NE,44,0.0,0.0,73,0.00,CLR,,0.00,0.0,WeatherDisplay:10.37,2013-04-25 03:59:00,
2013-04-24 23:01:00,42.0,34.6,30.32,NE,44,0.0,0.0,75,0.00,CLR,,0.00,0.0,WeatherDisplay:10.37,2013-04-25 04:01:00,
2013-04-24 23:06:00,41.1,35.4,30.32,NE,44,0.0,0.0,80,0.00,CLR,,0.00,0.0,WeatherDisplay:10.37,2013-04-25 04:06:00,
2013-04-24 23:11:00,40.6,34.9,30.32,NE,44,0.0,0.0,80,0.00,CLR,,0.00,0.0,WeatherDisplay:10.37,2013-04-25 04:11:00,
2013-04-24 23:16:00,40.5,34.8,30.31,NE,44,0.0,0.0,80,0.00,CLR,,0.00,0.0,WeatherDisplay:10.37,2013-04-25 04:16:00,
2013-04-24 23:21:00,40.3,34.9,30.32,NE,44,0.0,0.0,81,0.00,CLR,,0.00,0.0,WeatherDisplay:10.37,2013-04-25 04:21:00,
2013-04-24 23:26:00,40.1,34.4,30.32,NE,44,0.0,0.0,80,0.00,CLR,,0.00,0.0,WeatherDisplay:10.37,2013-04-25 04:26:00,
2013-04-24 23:31:00,40.2,34.2,30.32,NE,44,0.0,0.0,79,0.00,CLR,,0.00,0.0,WeatherDisplay:10.37,2013-04-25 04:31:00,
2013-04-24 23:36:00,40.2,34.2,30.32,NE,44,0.0,0.0,79,0.00,CLR,,0.00,0.0,WeatherDisplay:10.37,2013-04-25 04:36:00,
2013-04-24 23:41:00,40.4,33.4,30.32,NE,44,0.0,0.0,76,0.00,CLR,,0.00,0.0,WeatherDisplay:10.37,2013-04-25 04:41:00,
2013-04-24 23:46:00,40.3,34.3,30.32,NE,44,0.0,0.0,79,0.00,CLR,,0.00,0.0,WeatherDisplay:10.37,2013-04-25 04:46:00,
2013-04-24 23:51:00,40.1,35.0,30.33,NE,44,1.5,3.5,82,0.00,CLR,,0.00,0.0,WeatherDisplay:10.37,2013-04-25 04:51:00,
2013-04-24 23:56:00,39.9,35.2,30.33,NE,44,2.1,3.5,83,0.00,CLR,,0.00,0.0,WeatherDisplay:10.37,2013-04-25 04:56:00,